createdAt,value
2019-02-20T06:11:14.987Z,1017.88
2019-02-20T06:11:43.724Z,1017.89
2019-02-20T06:12:43.668Z,1017.82
2019-02-20T06:13:43.662Z,1017.86
2019-02-20T06:14:43.640Z,1017.86
2019-02-20T06:15:43.632Z,1017.83
2019-02-20T12:04:42.749Z,1019.01
2019-02-20T12:05:15.722Z,1019.08
2019-02-20T12:06:15.710Z,1019.03
2019-02-20T12:07:15.694Z,1019.04
2019-02-20T12:50:56.756Z,1018.84
2019-02-20T12:51:50.730Z,1018.82
2019-02-20T12:52:50.700Z,1018.83
2019-02-20T12:53:50.692Z,1018.79
2019-02-20T12:54:50.699Z,1018.76
2019-02-20T12:55:50.664Z,1018.80
2019-02-20T12:56:50.667Z,1018.75
2019-02-20T12:57:50.644Z,1018.81
2019-02-20T12:58:50.633Z,1018.75
2019-02-20T12:59:50.650Z,1018.76
2019-02-20T13:00:50.622Z,1018.77
2019-02-20T13:01:50.601Z,1018.78
2019-02-20T13:02:50.588Z,1018.76
2019-02-20T13:03:50.585Z,1018.81
2019-02-20T14:30:37.206Z,1018.70
2019-02-20T14:31:10.116Z,1018.64
2019-02-20T14:32:10.110Z,1018.65
2019-02-20T14:33:10.090Z,1018.69
2019-02-20T14:34:10.110Z,1018.66
2019-02-20T14:35:10.090Z,1018.64
2019-02-20T14:36:10.081Z,1018.62
2019-02-20T14:37:10.064Z,1018.70
2019-02-20T14:38:10.050Z,1018.64
2019-02-20T14:39:10.062Z,1018.63
2019-02-20T14:40:10.021Z,1018.63
2019-02-20T15:47:34.832Z,1018.76
2019-02-20T15:48:02.259Z,1018.77
2019-02-20T15:48:35.239Z,1018.79
2019-02-20T15:49:35.322Z,1018.78
2019-02-20T15:50:35.274Z,1018.75
2019-02-20T16:18:51.922Z,1018.81
2019-02-20T16:19:24.886Z,1018.72
2019-02-20T16:20:24.866Z,1018.75
2019-02-20T16:22:25.966Z,1018.80
2019-02-20T16:22:26.538Z,1018.79
2019-02-20T16:40:09.078Z,1018.93
2019-02-20T16:40:42.029Z,1018.82
2019-02-20T16:41:43.520Z,1018.87
2019-02-20T16:42:42.006Z,1018.80
2019-02-20T16:43:41.996Z,1018.83
2019-02-20T17:21:16.057Z,1019.15
2019-02-20T17:22:10.023Z,1019.18
2019-02-20T17:23:10.088Z,1019.17
2019-02-20T17:24:09.998Z,1019.15
2019-02-20T17:25:10.602Z,1019.20
2019-02-20T17:26:09.979Z,1019.16
2019-02-20T17:27:09.980Z,1019.17
2019-02-20T17:28:09.956Z,1019.22
2019-02-20T17:29:09.972Z,1019.21
2019-02-20T17:30:09.939Z,1019.19
2019-02-20T17:31:09.926Z,1019.24
2019-02-20T17:32:09.919Z,1019.23
2019-02-20T17:33:09.906Z,1019.23
2019-02-20T17:34:09.916Z,1019.29
2019-02-20T17:35:09.882Z,1019.28
2019-02-20T17:36:09.873Z,1019.27
2019-02-20T17:37:09.858Z,1019.29
2019-02-20T17:38:09.854Z,1019.30
2019-02-20T17:39:09.862Z,1019.25
2019-02-20T17:40:09.832Z,1019.29
2019-02-20T17:41:09.835Z,1019.32
2019-02-20T17:42:09.803Z,1019.36
2019-02-20T17:43:09.795Z,1019.34
2019-02-20T17:44:09.806Z,1019.33
2019-02-20T17:45:09.948Z,1019.39
2019-02-20T17:46:09.766Z,1019.39
2019-02-20T17:47:09.746Z,1019.37
2019-02-20T17:48:09.735Z,1019.41
2019-02-20T17:49:09.725Z,1019.34
2019-02-20T17:50:09.729Z,1019.38
2019-02-20T17:51:09.698Z,1019.37
2019-02-20T17:52:09.730Z,1019.36
2019-02-20T17:53:09.893Z,1019.46
2019-02-20T17:54:09.823Z,1019.45
2019-02-20T18:08:24.710Z,1019.56
2019-02-20T18:26:31.906Z,1019.68
2019-02-20T18:27:31.693Z,1019.62
2019-02-20T18:28:31.675Z,1019.59
2019-02-20T18:29:31.662Z,1019.61
2019-02-20T18:30:31.879Z,1019.64
2019-02-20T18:31:31.643Z,1019.59
2019-02-20T18:32:31.633Z,1019.56
2019-02-20T18:33:31.629Z,1019.62
2019-02-20T18:34:31.616Z,1019.59
2019-02-20T18:42:55.076Z,1019.70
2019-02-20T18:43:55.051Z,1019.69
2019-02-20T18:44:55.782Z,1019.73
2019-02-20T18:45:55.075Z,1019.77
2019-02-20T18:46:56.599Z,1019.72
2019-02-20T18:47:54.995Z,1019.74
2019-02-20T18:48:55.001Z,1019.73
2019-02-20T18:49:54.976Z,1019.78
2019-02-20T18:50:55.012Z,1019.75
2019-02-20T18:51:54.960Z,1019.86
2019-02-20T18:52:54.964Z,1019.79
2019-02-20T18:53:54.929Z,1019.84
2019-02-20T18:54:54.926Z,1019.79
2019-02-20T18:55:56.114Z,1019.76
2019-02-20T18:56:55.024Z,1019.79
2019-02-20T18:57:55.077Z,1019.79
2019-02-20T18:58:54.874Z,1019.78
2019-02-20T18:59:54.873Z,1019.73
2019-02-20T19:00:54.843Z,1019.78
2019-02-20T19:01:54.872Z,1019.83
2019-02-20T19:02:54.838Z,1019.80
2019-02-20T19:03:56.723Z,1019.85
2019-02-20T19:04:54.803Z,1019.77
2019-02-20T19:05:54.792Z,1019.86
2019-02-20T19:06:54.811Z,1019.78
2019-02-20T19:07:54.781Z,1019.89
2019-02-20T19:08:56.739Z,1019.84
2019-02-20T19:09:54.744Z,1019.87
2019-02-20T19:10:54.732Z,1019.92
2019-02-20T19:11:54.722Z,1019.97
2019-02-20T19:12:54.757Z,1019.97
2019-02-20T19:13:57.230Z,1019.93
2019-02-20T19:14:54.692Z,1019.92
2019-02-20T19:15:54.689Z,1019.93
2019-02-20T19:16:54.679Z,1019.91
2019-02-20T19:17:54.674Z,1019.92
2019-02-20T19:19:02.031Z,1019.83
2019-02-20T19:19:55.813Z,1019.87
2019-02-20T19:20:54.648Z,1019.98
2019-02-20T19:21:54.633Z,1019.97
2019-02-20T19:22:54.627Z,1019.96
2019-02-20T19:23:54.593Z,1019.93
2019-02-20T19:24:54.601Z,1020.00
2019-02-20T19:25:54.574Z,1019.98
2019-02-20T19:26:54.571Z,1019.97
2019-02-20T19:27:54.574Z,1020.01
2019-02-20T19:28:54.545Z,1019.98
2019-02-20T19:29:54.526Z,1020.04
2019-02-20T19:30:54.527Z,1020.03
2019-02-20T19:31:54.525Z,1020.06
2019-02-20T19:32:54.562Z,1020.02
2019-02-20T19:33:55.149Z,1020.07
2019-02-20T19:34:54.470Z,1020.08
2019-02-20T19:35:54.490Z,1020.05
2019-02-20T19:36:54.519Z,1020.04
2019-02-20T19:37:54.490Z,1020.10
2019-02-20T19:38:54.442Z,1020.13
2019-02-20T19:57:26.340Z,1020.11
2019-02-20T19:57:59.177Z,1020.15
2019-02-20T19:58:59.204Z,1020.16
2019-02-20T19:59:59.146Z,1020.23
2019-02-20T20:00:59.167Z,1020.18
2019-02-20T20:01:59.125Z,1020.18
2019-02-20T20:02:59.167Z,1020.16
2019-02-20T20:03:59.103Z,1020.21
2019-02-20T20:04:59.143Z,1020.15
2019-02-20T20:05:59.118Z,1020.17
2019-02-20T20:06:59.088Z,1020.21
2019-02-20T20:07:59.070Z,1020.20
2019-02-20T20:08:59.117Z,1020.21
2019-02-20T20:09:59.059Z,1020.21
2019-02-20T20:10:59.054Z,1020.20
2019-02-20T20:11:59.042Z,1020.24
2019-02-20T20:12:59.029Z,1020.25
2019-02-20T20:13:58.990Z,1020.17
2019-02-20T20:14:59.039Z,1020.19
2019-02-20T20:15:58.966Z,1020.20
2019-02-20T20:16:58.979Z,1020.32
2019-02-20T20:17:58.961Z,1020.32
2019-02-20T20:18:58.960Z,1020.26
2019-02-20T20:19:58.945Z,1020.31
2019-02-20T20:20:58.958Z,1020.23
2019-02-20T20:21:58.902Z,1020.21
2019-02-20T20:22:58.924Z,1020.27
2019-02-20T20:23:58.887Z,1020.23
2019-02-20T20:24:58.922Z,1020.25
2019-02-20T20:25:58.889Z,1020.27
2019-02-20T20:26:58.871Z,1020.25
2019-02-20T20:27:58.844Z,1020.20
2019-02-20T20:29:05.967Z,1020.20
2019-02-20T20:29:59.824Z,1020.20
2019-02-20T20:30:58.835Z,1020.27
2019-02-20T20:31:58.838Z,1020.27
2019-02-20T20:32:58.854Z,1020.29
2019-02-20T20:33:58.823Z,1020.26
2019-02-20T20:34:58.796Z,1020.25
2019-02-20T20:35:58.758Z,1020.23
2019-02-20T20:36:58.780Z,1020.30
2019-02-20T20:37:58.737Z,1020.26
2019-02-20T20:38:58.756Z,1020.23
2019-02-20T20:39:58.718Z,1020.24
2019-02-20T20:40:58.735Z,1020.31
2019-02-20T20:41:58.718Z,1020.33
2019-02-20T20:42:58.713Z,1020.33
2019-02-20T20:43:58.715Z,1020.30
2019-02-20T20:44:58.687Z,1020.30
2019-02-20T20:45:58.701Z,1020.35
2019-02-20T20:46:59.399Z,1020.34
2019-02-20T20:47:58.651Z,1020.37
2019-02-20T20:48:58.622Z,1020.37
2019-02-20T20:49:58.621Z,1020.40
2019-02-20T20:50:58.607Z,1020.33
2019-02-20T20:51:58.633Z,1020.30
2019-02-20T20:52:58.569Z,1020.32
2019-02-20T20:53:58.597Z,1020.38
2019-02-20T20:55:00.537Z,1020.36
2019-02-20T20:55:58.567Z,1020.44
2019-02-20T20:57:00.427Z,1020.43
2019-02-20T20:57:58.525Z,1020.47
2019-02-20T20:58:58.523Z,1020.43
2019-02-20T20:59:58.500Z,1020.42
2019-02-20T21:00:58.485Z,1020.42
2019-02-20T21:01:58.498Z,1020.47
2019-02-20T21:02:58.482Z,1020.44
2019-02-20T21:03:58.451Z,1020.50
2019-02-20T21:04:58.463Z,1020.44
2019-02-20T21:05:58.426Z,1020.47
2019-02-20T21:06:58.498Z,1020.48
2019-02-20T21:07:58.433Z,1020.42
2019-02-20T21:08:58.449Z,1020.50
2019-02-20T21:09:58.384Z,1020.41
2019-02-20T21:10:58.399Z,1020.39
2019-02-20T21:11:58.380Z,1020.51
2019-02-20T21:12:58.386Z,1020.48
2019-02-20T21:13:58.347Z,1020.52
2019-02-20T21:14:58.349Z,1020.41
2019-02-20T21:15:58.332Z,1020.46
2019-02-20T21:16:58.325Z,1020.47
2019-02-20T21:17:58.310Z,1020.49
2019-02-20T21:18:58.372Z,1020.48
2019-02-20T21:19:58.280Z,1020.52
2019-02-20T21:20:58.264Z,1020.46
2019-02-20T21:21:58.305Z,1020.46
2019-02-20T21:22:58.269Z,1020.46
2019-02-20T21:23:58.261Z,1020.49
2019-02-20T21:24:58.239Z,1020.47
2019-02-20T21:25:58.227Z,1020.48
2019-02-20T21:26:58.219Z,1020.51
2019-02-20T21:27:58.228Z,1020.49
2019-02-20T21:28:58.202Z,1020.46
2019-02-20T21:29:58.202Z,1020.47
2019-02-20T21:30:58.159Z,1020.50
2019-02-20T21:32:00.791Z,1020.50
2019-02-20T21:32:58.136Z,1020.50
2019-02-20T21:33:58.199Z,1020.52
2019-02-20T21:34:58.132Z,1020.57
2019-02-20T21:35:58.128Z,1020.49
2019-02-20T21:36:58.096Z,1020.57
2019-02-20T21:37:58.078Z,1020.61
2019-02-20T21:38:58.139Z,1020.59
2019-02-20T21:39:58.060Z,1020.56
2019-02-20T21:40:58.086Z,1020.63
2019-02-20T22:12:59.319Z,1021.04
2019-02-20T22:13:42.508Z,1021.01
2019-02-20T22:14:42.501Z,1021.02
2019-02-20T22:15:42.493Z,1020.96
2019-02-20T22:16:42.512Z,1020.99
2019-02-20T22:17:42.465Z,1020.99
2019-02-20T22:18:42.466Z,1021.02
2019-02-20T22:19:42.444Z,1021.03
2019-02-20T22:20:42.442Z,1021.03
2019-02-20T22:21:42.428Z,1021.04
2019-02-20T22:22:42.510Z,1020.99
2019-02-20T22:23:42.406Z,1020.95
2019-02-20T22:24:42.399Z,1021.06
2019-02-20T22:25:42.382Z,1020.94
2019-02-20T22:26:42.379Z,1021.01
2019-02-20T22:27:42.386Z,1021.00
2019-02-20T22:28:42.355Z,1021.01
2019-02-20T22:29:49.714Z,1021.10
2019-02-20T22:30:43.326Z,1021.05
2019-02-20T22:31:42.324Z,1021.06
2019-02-20T22:32:42.352Z,1021.05
2019-02-20T22:33:42.311Z,1021.10
2019-02-20T22:34:42.300Z,1021.06
2019-02-20T22:35:42.274Z,1021.09
2019-02-20T22:36:42.269Z,1021.07
2019-02-20T22:37:44.737Z,1021.12
2019-02-20T22:38:43.813Z,1021.12
2019-02-20T22:39:42.236Z,1021.11
2019-02-20T22:40:42.222Z,1021.04
2019-02-20T22:41:42.207Z,1021.05
2019-02-20T22:42:42.223Z,1021.03
2019-02-20T22:43:42.186Z,1021.15
2019-02-20T22:44:42.177Z,1021.12
2019-02-20T22:45:42.165Z,1021.12
2019-02-20T22:46:42.157Z,1021.16
2019-02-20T22:47:42.172Z,1021.15
2019-02-20T22:48:42.134Z,1021.11
2019-02-20T22:49:42.126Z,1021.16
2019-02-20T22:50:42.109Z,1021.14
2019-02-20T22:51:42.114Z,1021.08
2019-02-20T22:52:42.093Z,1021.10
2019-02-20T22:53:42.100Z,1021.13
2019-02-20T22:54:42.067Z,1021.17
2019-02-20T22:55:42.056Z,1021.18
2019-02-20T22:56:42.045Z,1021.19
2019-02-20T22:57:42.030Z,1021.16
2019-02-20T22:58:42.048Z,1021.14
2019-02-20T22:59:42.129Z,1021.13
2019-02-20T23:00:42.001Z,1021.11
2019-02-20T23:01:41.994Z,1021.15
2019-02-20T23:02:41.980Z,1021.20
2019-02-20T23:03:41.973Z,1021.17
2019-02-20T23:04:41.979Z,1021.22
2019-02-20T23:05:41.957Z,1021.16
2019-02-20T23:06:41.935Z,1021.15
2019-02-20T23:07:41.934Z,1021.18
2019-02-20T23:08:41.913Z,1021.14
2019-02-20T23:09:41.927Z,1021.19
2019-02-20T23:10:41.892Z,1021.16
2019-02-20T23:11:41.879Z,1021.17
2019-02-20T23:12:41.869Z,1021.15
2019-02-20T23:13:41.865Z,1021.21
2019-02-20T23:14:41.871Z,1021.15
2019-02-20T23:15:43.355Z,1021.19
2019-02-20T23:16:41.830Z,1021.16
2019-02-20T23:17:41.819Z,1021.16
2019-02-20T23:18:41.807Z,1021.16
2019-02-20T23:19:41.819Z,1021.11
2019-02-20T23:20:41.776Z,1021.14
2019-02-20T23:21:41.769Z,1021.12
2019-02-20T23:22:41.760Z,1021.15
2019-02-20T23:23:41.748Z,1021.12
2019-02-20T23:24:42.162Z,1021.20
2019-02-20T23:25:41.728Z,1021.23
2019-02-20T23:26:41.716Z,1021.23
2019-02-20T23:27:41.707Z,1021.23
2019-02-20T23:28:41.696Z,1021.26
2019-02-20T23:29:41.686Z,1021.25
2019-02-20T23:30:41.702Z,1021.26
2019-02-20T23:31:41.663Z,1021.27
2019-02-20T23:32:43.291Z,1021.33
2019-02-20T23:33:41.635Z,1021.30
2019-02-20T23:34:41.625Z,1021.35
2019-02-20T23:35:41.633Z,1021.25
2019-02-20T23:36:41.604Z,1021.28
2019-02-20T23:37:41.590Z,1021.30
2019-02-20T23:38:41.580Z,1021.35
2019-02-20T23:39:41.569Z,1021.32
2019-02-20T23:40:41.584Z,1021.32
2019-02-20T23:41:41.547Z,1021.29
2019-02-20T23:42:41.536Z,1021.34
2019-02-20T23:43:41.525Z,1021.28
2019-02-20T23:44:41.516Z,1021.30
2019-02-20T23:45:41.529Z,1021.28
2019-02-20T23:46:41.492Z,1021.30
2019-02-20T23:47:41.482Z,1021.28
2019-02-20T23:48:41.470Z,1021.32
2019-02-20T23:49:41.461Z,1021.36
2019-02-20T23:50:41.469Z,1021.32
2019-02-20T23:51:41.439Z,1021.29
2019-02-20T23:52:41.435Z,1021.29
2019-02-20T23:53:41.416Z,1021.31
2019-02-20T23:54:41.405Z,1021.35
2019-02-20T23:55:41.456Z,1021.32
2019-02-20T23:56:41.382Z,1021.33
2019-02-20T23:57:41.375Z,1021.37
2019-02-20T23:58:41.402Z,1021.39
2019-02-20T23:59:41.353Z,1021.34
